sensor_id;sensor_type;location;lat;lon;timestamp;pressure;altitude;pressure_sealevel;temperature;humidity
43217;BME280;60511;42.686;23.300;2022-09-13T00:01:15;94558.84;;;23.00;38.04
43217;BME280;60511;42.686;23.300;2022-09-13T00:03:15;94565.50;;;23.03;37.65
43217;BME280;60511;42.686;23.300;2022-09-13T00:05:16;94564.44;;;23.08;37.93
43217;BME280;60511;42.686;23.300;2022-09-13T00:07:16;94566.78;;;23.09;37.63
43217;BME280;60511;42.686;23.300;2022-09-13T00:09:17;94560.53;;;23.05;37.93
43217;BME280;60511;42.686;23.300;2022-09-13T00:11:22;94558.19;;;23.03;37.74
43217;BME280;60511;42.686;23.300;2022-09-13T00:13:23;94547.25;;;23.00;38.12
43217;BME280;60511;42.686;23.300;2022-09-13T00:15:23;94551.63;;;23.04;37.72
43217;BME280;60511;42.686;23.300;2022-09-13T00:17:24;94553.78;;;23.15;37.69
43217;BME280;60511;42.686;23.300;2022-09-13T00:19:25;94546.50;;;23.15;37.41
43217;BME280;60511;42.686;23.300;2022-09-13T00:21:25;94548.31;;;23.11;37.66
43217;BME280;60511;42.686;23.300;2022-09-13T00:23:26;94534.44;;;23.13;37.70
43217;BME280;60511;42.686;23.300;2022-09-13T00:25:27;94538.72;;;23.14;37.59
43217;BME280;60511;42.686;23.300;2022-09-13T00:27:27;94535.09;;;23.06;37.59
43217;BME280;60511;42.686;23.300;2022-09-13T00:29:27;94537.44;;;23.08;37.74
43217;BME280;60511;42.686;23.300;2022-09-13T00:31:27;94536.47;;;23.16;37.68
43217;BME280;60511;42.686;23.300;2022-09-13T00:33:28;94537.44;;;23.08;37.68
43217;BME280;60511;42.686;23.300;2022-09-13T00:35:28;94530.13;;;23.08;37.83
43217;BME280;60511;42.686;23.300;2022-09-13T00:37:29;94530.72;;;23.17;37.46
43217;BME280;60511;42.686;23.300;2022-09-13T00:39:29;94525.16;;;23.10;37.64
43217;BME280;60511;42.686;23.300;2022-09-13T00:41:29;94531.69;;;23.09;37.88
43217;BME280;60511;42.686;23.300;2022-09-13T00:43:40;94530.13;;;23.08;37.66
43217;BME280;60511;42.686;23.300;2022-09-13T00:45:41;94525.06;;;23.06;37.75
43217;BME280;60511;42.686;23.300;2022-09-13T00:47:44;94527.41;;;23.08;37.80
43217;BME280;60511;42.686;23.300;2022-09-13T00:49:45;94530.63;;;23.14;37.83
43217;BME280;60511;42.686;23.300;2022-09-13T00:51:51;94531.06;;;23.16;37.46
43217;BME280;60511;42.686;23.300;2022-09-13T00:53:53;94527.59;;;23.15;37.60
43217;BME280;60511;42.686;23.300;2022-09-13T00:55:56;94521.47;;;23.18;37.53
43217;BME280;60511;42.686;23.300;2022-09-13T00:57:58;94517.69;;;23.23;37.47
43217;BME280;60511;42.686;23.300;2022-09-13T01:00:02;94521.47;;;23.18;37.63
43217;BME280;60511;42.686;23.300;2022-09-13T01:02:10;94521.91;;;23.20;37.50
43217;BME280;60511;42.686;23.300;2022-09-13T01:04:11;94523.03;;;23.19;37.58
43217;BME280;60511;42.686;23.300;2022-09-13T01:06:16;94521.91;;;23.20;37.38
43217;BME280;60511;42.686;23.300;2022-09-13T01:08:17;94525.56;;;23.12;37.88
43217;BME280;60511;42.686;23.300;2022-09-13T01:10:24;94524.25;;;23.22;37.70
43217;BME280;60511;42.686;23.300;2022-09-13T01:14:31;94525.81;;;23.23;37.79
43217;BME280;60511;42.686;23.300;2022-09-13T01:16:32;94522.66;;;23.21;37.47
43217;BME280;60511;42.686;23.300;2022-09-13T01:18:32;94527.28;;;23.20;37.53
43217;BME280;60511;42.686;23.300;2022-09-13T01:20:47;94524.47;;;23.33;37.34
43217;BME280;60511;42.686;23.300;2022-09-13T01:23:01;94525.97;;;23.30;37.38
43217;BME280;60511;42.686;23.300;2022-09-13T01:29:20;94519.97;;;23.21;37.51
43217;BME280;60511;42.686;23.300;2022-09-13T01:51:16;94511.38;;;23.15;38.02
43217;BME280;60511;42.686;23.300;2022-09-13T01:57:42;94506.22;;;23.26;37.78
43217;BME280;60511;42.686;23.300;2022-09-13T01:59:59;94512.25;;;23.19;37.55
43217;BME280;60511;42.686;23.300;2022-09-13T02:02:02;94506.28;;;23.30;37.25
43217;BME280;60511;42.686;23.300;2022-09-13T02:04:05;94503.00;;;23.20;37.60
43217;BME280;60511;42.686;23.300;2022-09-13T02:06:08;94497.09;;;23.15;37.75
43217;BME280;60511;42.686;23.300;2022-09-13T02:08:12;94505.78;;;23.24;37.73
43217;BME280;60511;42.686;23.300;2022-09-13T02:10:28;94499.22;;;23.25;37.51
43217;BME280;60511;42.686;23.300;2022-09-13T02:12:31;94505.69;;;23.20;37.58
43217;BME280;60511;42.686;23.300;2022-09-13T02:14:35;94499.22;;;23.25;37.49
43217;BME280;60511;42.686;23.300;2022-09-13T02:18:40;94506.41;;;23.17;37.76
43217;BME280;60511;42.686;23.300;2022-09-13T02:20:42;94509.13;;;23.17;38.00
43217;BME280;60511;42.686;23.300;2022-09-13T02:22:44;94502.44;;;23.31;37.67
43217;BME280;60511;42.686;23.300;2022-09-13T02:24:47;94504.50;;;23.37;37.87
43217;BME280;60511;42.686;23.300;2022-09-13T02:26:49;94500.47;;;23.27;37.76
43217;BME280;60511;42.686;23.300;2022-09-13T02:28:51;94494.63;;;23.25;37.73
43217;BME280;60511;42.686;23.300;2022-09-13T02:30:54;94494.69;;;23.29;37.76
43217;BME280;60511;42.686;23.300;2022-09-13T02:33:00;94494.69;;;23.29;37.77
43217;BME280;60511;42.686;23.300;2022-09-13T02:35:05;94496.53;;;23.25;38.07
43217;BME280;60511;42.686;23.300;2022-09-13T02:37:06;94508.06;;;23.22;37.93
43217;BME280;60511;42.686;23.300;2022-09-13T02:39:17;94505.84;;;23.27;37.63
43217;BME280;60511;42.686;23.300;2022-09-13T02:43:24;94506.72;;;23.32;37.47
43217;BME280;60511;42.686;23.300;2022-09-13T02:45:28;94512.69;;;23.21;37.89
43217;BME280;60511;42.686;23.300;2022-09-13T02:49:47;94506.22;;;23.26;37.63
43217;BME280;60511;42.686;23.300;2022-09-13T02:58:24;94505.69;;;23.20;37.58
43217;BME280;60511;42.686;23.300;2022-09-13T03:00:27;94506.34;;;23.14;37.55
43217;BME280;60511;42.686;23.300;2022-09-13T03:02:30;94505.28;;;23.18;37.32
43217;BME280;60511;42.686;23.300;2022-09-13T03:04:32;94506.03;;;23.19;37.60
43217;BME280;60511;42.686;23.300;2022-09-13T03:06:32;94505.13;;;23.11;37.77
43217;BME280;60511;42.686;23.300;2022-09-13T03:08:33;94510.00;;;23.05;37.79
43217;BME280;60511;42.686;23.300;2022-09-13T03:10:37;94507.22;;;23.02;37.67
43217;BME280;60511;42.686;23.300;2022-09-13T03:17:10;94505.31;;;23.02;38.01
43217;BME280;60511;42.686;23.300;2022-09-13T03:23:33;94502.78;;;23.10;38.09
43217;BME280;60511;42.686;23.300;2022-09-13T03:27:51;94497.88;;;23.15;37.66
43217;BME280;60511;42.686;23.300;2022-09-13T03:32:04;94510.84;;;23.25;37.56
43217;BME280;60511;42.686;23.300;2022-09-13T03:34:09;94502.91;;;23.17;37.67
43217;BME280;60511;42.686;23.300;2022-09-13T03:36:14;94505.63;;;23.17;37.59
43217;BME280;60511;42.686;23.300;2022-09-13T03:40:21;94505.91;;;23.12;37.51
43217;BME280;60511;42.686;23.300;2022-09-13T03:42:33;94507.47;;;23.13;37.43
43217;BME280;60511;42.686;23.300;2022-09-13T03:44:35;94509.81;;;23.14;37.96
43217;BME280;60511;42.686;23.300;2022-09-13T03:46:37;94515.84;;;23.08;37.64
43217;BME280;60511;42.686;23.300;2022-09-13T03:48:39;94508.59;;;23.12;37.63
43217;BME280;60511;42.686;23.300;2022-09-13T03:50:41;94507.75;;;23.08;37.92
43217;BME280;60511;42.686;23.300;2022-09-13T03:52:44;94510.66;;;23.18;37.61
43217;BME280;60511;42.686;23.300;2022-09-13T03:54:46;94512.25;;;23.19;37.45
43217;BME280;60511;42.686;23.300;2022-09-13T03:59:10;94512.38;;;23.26;37.80
43217;BME280;60511;42.686;23.300;2022-09-13T04:01:11;94507.75;;;23.27;38.03
43217;BME280;60511;42.686;23.300;2022-09-13T04:03:13;94517.78;;;23.26;38.04
43217;BME280;60511;42.686;23.300;2022-09-13T04:05:13;94517.94;;;23.34;37.78
43217;BME280;60511;42.686;23.300;2022-09-13T04:07:15;94512.25;;;23.39;37.76
43217;BME280;60511;42.686;23.300;2022-09-13T04:09:16;94511.81;;;23.37;37.64
43217;BME280;60511;42.686;23.300;2022-09-13T04:11:16;94513.81;;;23.40;37.89
43217;BME280;60511;42.686;23.300;2022-09-13T04:13:16;94514.31;;;23.45;37.88
43217;BME280;60511;42.686;23.300;2022-09-13T04:15:17;94516.31;;;23.49;37.62
43217;BME280;60511;42.686;23.300;2022-09-13T04:17:17;94512.97;;;23.55;37.65
43217;BME280;60511;42.686;23.300;2022-09-13T04:19:18;94508.84;;;23.61;37.75
43217;BME280;60511;42.686;23.300;2022-09-13T04:21:18;94454.56;;;23.27;37.44
43217;BME280;60511;42.686;23.300;2022-09-13T04:23:18;94513.63;;;23.68;37.70
43217;BME280;60511;42.686;23.300;2022-09-13T04:25:19;94516.75;;;23.70;37.63
43217;BME280;60511;42.686;23.300;2022-09-13T04:27:20;94514.09;;;23.74;37.69
43217;BME280;60511;42.686;23.300;2022-09-13T04:29:21;94520.66;;;23.73;37.49
43217;BME280;60511;42.686;23.300;2022-09-13T04:31:21;94525.28;;;23.72;37.59
43217;BME280;60511;42.686;23.300;2022-09-13T04:33:22;94527.59;;;23.74;37.47
43217;BME280;60511;42.686;23.300;2022-09-13T04:35:22;94520.38;;;23.78;37.43
43217;BME280;60511;42.686;23.300;2022-09-13T04:37:22;94530.84;;;23.79;37.74
43217;BME280;60511;42.686;23.300;2022-09-13T04:39:23;94522.72;;;23.79;37.66
43217;BME280;60511;42.686;23.300;2022-09-13T04:41:23;94527.06;;;23.84;37.44
43217;BME280;60511;42.686;23.300;2022-09-13T04:43:24;94534.03;;;23.85;37.44
43217;BME280;60511;42.686;23.300;2022-09-13T04:45:24;94531.84;;;23.91;37.65
43217;BME280;60511;42.686;23.300;2022-09-13T04:47:24;94538.44;;;23.93;37.37
43217;BME280;60511;42.686;23.300;2022-09-13T04:49:25;94537.66;;;23.93;37.39
43217;BME280;60511;42.686;23.300;2022-09-13T04:51:25;94534.22;;;23.96;37.48
43217;BME280;60511;42.686;23.300;2022-09-13T04:53:25;94537.00;;;23.99;37.17
43217;BME280;60511;42.686;23.300;2022-09-13T04:55:25;94540.47;;;24.00;37.22
43217;BME280;60511;42.686;23.300;2022-09-13T04:57:29;94536.00;;;24.08;37.11
43217;BME280;60511;42.686;23.300;2022-09-13T04:59:29;94540.63;;;24.07;37.08
43217;BME280;60511;42.686;23.300;2022-09-13T05:01:29;94549.59;;;24.11;37.07
43217;BME280;60511;42.686;23.300;2022-09-13T05:03:30;94551.88;;;24.09;37.34
43217;BME280;60511;42.686;23.300;2022-09-13T05:05:30;94553.00;;;24.08;37.46
43217;BME280;60511;42.686;23.300;2022-09-13T05:07:31;94551.88;;;24.09;37.30
43217;BME280;60511;42.686;23.300;2022-09-13T05:09:31;94547.22;;;24.10;37.13
43217;BME280;60511;42.686;23.300;2022-09-13T05:11:32;94541.06;;;24.09;37.35
43217;BME280;60511;42.686;23.300;2022-09-13T05:13:32;94543.09;;;24.16;37.18
43217;BME280;60511;42.686;23.300;2022-09-13T05:15:32;94538.81;;;24.15;37.22
43217;BME280;60511;42.686;23.300;2022-09-13T05:17:33;94541.16;;;24.16;37.14
43217;BME280;60511;42.686;23.300;2022-09-13T05:19:33;94543.44;;;24.14;37.34
43217;BME280;60511;42.686;23.300;2022-09-13T05:21:34;94536.50;;;24.13;37.36
43217;BME280;60511;42.686;23.300;2022-09-13T05:23:34;94543.94;;;24.20;37.13
43217;BME280;60511;42.686;23.300;2022-09-13T05:25:34;94541.59;;;24.18;37.29
43217;BME280;60511;42.686;23.300;2022-09-13T05:27:34;94543.59;;;24.21;37.24
43217;BME280;60511;42.686;23.300;2022-09-13T05:29:35;94542.00;;;24.20;37.45
43217;BME280;60511;42.686;23.300;2022-09-13T05:31:36;94539.88;;;24.30;37.28
43217;BME280;60511;42.686;23.300;2022-09-13T05:33:37;94541.41;;;24.31;37.37
43217;BME280;60511;42.686;23.300;2022-09-13T05:35:39;94547.19;;;24.29;37.41
43217;BME280;60511;42.686;23.300;2022-09-13T05:37:39;94542.59;;;24.33;37.31
43217;BME280;60511;42.686;23.300;2022-09-13T05:39:39;94543.84;;;24.36;37.51
43217;BME280;60511;42.686;23.300;2022-09-13T05:41:40;94546.06;;;24.30;37.42
43217;BME280;60511;42.686;23.300;2022-09-13T05:43:40;94552.59;;;24.29;37.46
43217;BME280;60511;42.686;23.300;2022-09-13T05:45:41;94547.97;;;24.30;37.65
43217;BME280;60511;42.686;23.300;2022-09-13T05:47:41;94554.28;;;24.37;37.68
43217;BME280;60511;42.686;23.300;2022-09-13T05:49:41;94550.78;;;24.37;37.65
43217;BME280;60511;42.686;23.300;2022-09-13T05:51:41;94545.03;;;24.38;37.44
43217;BME280;60511;42.686;23.300;2022-09-13T05:53:42;94549.25;;;24.36;37.46
43217;BME280;60511;42.686;23.300;2022-09-13T05:55:43;94560.06;;;24.36;37.54
43217;BME280;60511;42.686;23.300;2022-09-13T05:57:43;94560.50;;;24.38;37.41
43217;BME280;60511;42.686;23.300;2022-09-13T05:59:44;94552.41;;;24.41;37.30
43217;BME280;60511;42.686;23.300;2022-09-13T06:01:44;94549.72;;;24.41;37.49
43217;BME280;60511;42.686;23.300;2022-09-13T06:03:48;94543.94;;;24.43;37.53
43217;BME280;60511;42.686;23.300;2022-09-13T06:05:48;94548.66;;;24.46;37.53
43217;BME280;60511;42.686;23.300;2022-09-13T06:07:49;94544.00;;;24.46;37.47
43217;BME280;60511;42.686;23.300;2022-09-13T06:09:49;94544.44;;;24.49;37.44
43217;BME280;60511;42.686;23.300;2022-09-13T06:11:49;94554.13;;;24.50;37.41
43217;BME280;60511;42.686;23.300;2022-09-13T06:13:50;94551.84;;;24.52;37.23
43217;BME280;60511;42.686;23.300;2022-09-13T06:15:50;94544.13;;;24.54;37.42
43217;BME280;60511;42.686;23.300;2022-09-13T06:17:51;94549.97;;;24.56;37.26
43217;BME280;60511;42.686;23.300;2022-09-13T06:19:51;94489.84;;;24.20;37.38
43217;BME280;60511;42.686;23.300;2022-09-13T06:21:51;94562.78;;;24.59;37.45
43217;BME280;60511;42.686;23.300;2022-09-13T06:23:52;94557.03;;;24.60;37.53
43217;BME280;60511;42.686;23.300;2022-09-13T06:26:06;94552.03;;;24.62;37.33
43217;BME280;60511;42.686;23.300;2022-09-13T06:28:07;94550.09;;;24.63;37.46
43217;BME280;60511;42.686;23.300;2022-09-13T06:30:07;94553.16;;;24.61;37.64
43217;BME280;60511;42.686;23.300;2022-09-13T06:32:07;94554.75;;;24.62;37.56
43217;BME280;60511;42.686;23.300;2022-09-13T06:34:08;94559.78;;;24.64;37.36
43217;BME280;60511;42.686;23.300;2022-09-13T06:36:14;94558.28;;;24.66;37.37
43217;BME280;60511;42.686;23.300;2022-09-13T06:38:15;94558.72;;;24.69;37.16
43217;BME280;60511;42.686;23.300;2022-09-13T06:40:15;94563.72;;;24.70;37.21
43217;BME280;60511;42.686;23.300;2022-09-13T06:42:16;94564.97;;;24.73;37.45
43217;BME280;60511;42.686;23.300;2022-09-13T06:44:16;94560.31;;;24.73;37.48
43217;BME280;60511;42.686;23.300;2022-09-13T06:46:16;94565.72;;;24.73;37.33
43217;BME280;60511;42.686;23.300;2022-09-13T06:48:17;94564.22;;;24.76;37.46
43217;BME280;60511;42.686;23.300;2022-09-13T06:50:17;94575.03;;;24.76;37.42
43217;BME280;60511;42.686;23.300;2022-09-13T06:52:18;94575.81;;;24.76;37.39
43217;BME280;60511;42.686;23.300;2022-09-13T06:54:18;94582.81;;;24.77;37.15
43217;BME280;60511;42.686;23.300;2022-09-13T06:56:19;94581.28;;;24.80;37.10
43217;BME280;60511;42.686;23.300;2022-09-13T06:58:20;94574.34;;;24.79;37.09
43217;BME280;60511;42.686;23.300;2022-09-13T07:00:20;94571.63;;;24.79;37.37
43217;BME280;60511;42.686;23.300;2022-09-13T07:02:20;94575.88;;;24.80;37.07
43217;BME280;60511;42.686;23.300;2022-09-13T07:04:21;94582.47;;;24.79;37.02
43217;BME280;60511;42.686;23.300;2022-09-13T07:06:23;94587.81;;;22.24;38.41
43217;BME280;60511;42.686;23.300;2022-09-13T07:08:26;94591.09;;;22.17;38.61
43217;BME280;60511;42.686;23.300;2022-09-13T07:10:26;94596.94;;;21.91;39.65
43217;BME280;60511;42.686;23.300;2022-09-13T07:12:26;94593.91;;;20.41;41.24
43217;BME280;60511;42.686;23.300;2022-09-13T07:14:27;94594.38;;;21.54;39.84
43217;BME280;60511;42.686;23.300;2022-09-13T07:16:29;94588.56;;;22.53;38.33
43217;BME280;60511;42.686;23.300;2022-09-13T07:18:29;94597.00;;;22.99;37.93
43217;BME280;60511;42.686;23.300;2022-09-13T07:20:30;94597.78;;;23.15;37.77
43217;BME280;60511;42.686;23.300;2022-09-13T07:22:30;94594.13;;;23.43;37.40
43217;BME280;60511;42.686;23.300;2022-09-13T07:24:30;94586.91;;;23.66;37.07
43217;BME280;60511;42.686;23.300;2022-09-13T07:26:30;94601.09;;;23.79;36.62
43217;BME280;60511;42.686;23.300;2022-09-13T07:28:32;94590.78;;;23.85;36.81
43217;BME280;60511;42.686;23.300;2022-09-13T07:30:33;94585.94;;;23.94;36.41
43217;BME280;60511;42.686;23.300;2022-09-13T07:32:33;94593.56;;;24.08;35.86
43217;BME280;60511;42.686;23.300;2022-09-13T07:34:33;94595.81;;;24.06;36.20
43217;BME280;60511;42.686;23.300;2022-09-13T07:36:34;94597.03;;;24.09;36.33
43217;BME280;60511;42.686;23.300;2022-09-13T07:38:35;94594.81;;;24.14;35.79
43217;BME280;60511;42.686;23.300;2022-09-13T07:40:35;94592.03;;;24.11;35.72
43217;BME280;60511;42.686;23.300;2022-09-13T07:42:36;94599.03;;;24.12;35.91
43217;BME280;60511;42.686;23.300;2022-09-13T07:44:36;94598.38;;;24.18;35.94
43217;BME280;60511;42.686;23.300;2022-09-13T07:46:37;94600.81;;;24.23;36.22
43217;BME280;60511;42.686;23.300;2022-09-13T07:48:43;94603.28;;;24.32;36.20
43217;BME280;60511;42.686;23.300;2022-09-13T07:50:43;94600.16;;;24.30;35.89
43217;BME280;60511;42.686;23.300;2022-09-13T07:52:44;94604.47;;;24.35;35.78
43217;BME280;60511;42.686;23.300;2022-09-13T07:54:44;94606.06;;;24.36;35.68
43217;BME280;60511;42.686;23.300;2022-09-13T07:56:44;94607.53;;;24.33;35.52
43217;BME280;60511;42.686;23.300;2022-09-13T07:58:45;94603.81;;;24.41;35.42
43217;BME280;60511;42.686;23.300;2022-09-13T08:00:46;94610.31;;;24.37;36.15
43217;BME280;60511;42.686;23.300;2022-09-13T08:02:46;94608.38;;;24.37;35.68
43217;BME280;60511;42.686;23.300;2022-09-13T08:04:46;94605.06;;;24.47;35.32
43217;BME280;60511;42.686;23.300;2022-09-13T08:06:47;94603.47;;;24.43;34.83
43217;BME280;60511;42.686;23.300;2022-09-13T08:08:47;94604.56;;;24.61;34.67
43217;BME280;60511;42.686;23.300;2022-09-13T08:10:48;94607.94;;;24.55;34.99
43217;BME280;60511;42.686;23.300;2022-09-13T08:12:49;94607.78;;;24.47;35.02
43217;BME280;60511;42.686;23.300;2022-09-13T08:14:49;94604.72;;;24.49;35.19
43217;BME280;60511;42.686;23.300;2022-09-13T08:16:49;94603.72;;;24.57;34.88
43217;BME280;60511;42.686;23.300;2022-09-13T08:18:52;94604.41;;;24.51;35.46
43217;BME280;60511;42.686;23.300;2022-09-13T08:20:56;94603.63;;;24.50;35.52
43217;BME280;60511;42.686;23.300;2022-09-13T08:22:57;94594.63;;;24.46;34.89
43217;BME280;60511;42.686;23.300;2022-09-13T08:24:57;94607.22;;;24.58;34.62
43217;BME280;60511;42.686;23.300;2022-09-13T08:26:57;94600.25;;;24.57;34.66
43217;BME280;60511;42.686;23.300;2022-09-13T08:28:58;94595.97;;;24.56;34.96
43217;BME280;60511;42.686;23.300;2022-09-13T08:31:17;94596.78;;;24.56;34.98
43217;BME280;60511;42.686;23.300;2022-09-13T08:33:19;94598.91;;;24.70;34.22
43217;BME280;60511;42.686;23.300;2022-09-13T08:35:19;94591.97;;;24.69;34.45
43217;BME280;60511;42.686;23.300;2022-09-13T08:37:19;94594.91;;;24.60;34.75
43217;BME280;60511;42.686;23.300;2022-09-13T08:39:20;94586.84;;;24.64;34.66
43217;BME280;60511;42.686;23.300;2022-09-13T08:41:26;94584.69;;;24.73;34.36
43217;BME280;60511;42.686;23.300;2022-09-13T08:43:45;94589.78;;;24.78;33.81
43217;BME280;60511;42.686;23.300;2022-09-13T08:45:48;94590.16;;;24.77;33.55
43217;BME280;60511;42.686;23.300;2022-09-13T08:47:51;94591.28;;;24.76;34.14
43217;BME280;60511;42.686;23.300;2022-09-13T08:54:21;94585.34;;;24.66;34.50
43217;BME280;60511;42.686;23.300;2022-09-13T08:56:22;94585.72;;;24.65;34.42
43217;BME280;60511;42.686;23.300;2022-09-13T08:58:31;94582.69;;;24.70;33.89
43217;BME280;60511;42.686;23.300;2022-09-13T09:09:07;94580.94;;;24.81;33.91
43217;BME280;60511;42.686;23.300;2022-09-13T09:11:13;94576.03;;;24.91;33.98
43217;BME280;60511;42.686;23.300;2022-09-13T09:15:24;94582.97;;;24.88;34.14
43217;BME280;60511;42.686;23.300;2022-09-13T09:19:47;94590.88;;;24.97;33.97
43217;BME280;60511;42.686;23.300;2022-09-13T09:21:52;94586.09;;;24.90;34.12
43217;BME280;60511;42.686;23.300;2022-09-13T09:23:54;94589.97;;;24.89;34.12
43217;BME280;60511;42.686;23.300;2022-09-13T09:26:28;94583.75;;;24.89;34.06
43217;BME280;60511;42.686;23.300;2022-09-13T09:28:20;94579.97;;;24.93;33.54
43217;BME280;60511;42.686;23.300;2022-09-13T09:30:21;94580.44;;;24.99;33.09
43217;BME280;60511;42.686;23.300;2022-09-13T09:32:27;94578.53;;;24.99;34.46
43217;BME280;60511;42.686;23.300;2022-09-13T09:36:59;94568.59;;;25.07;34.19
43217;BME280;60511;42.686;23.300;2022-09-13T09:39:03;94573.59;;;25.05;34.36
43217;BME280;60511;42.686;23.300;2022-09-13T09:41:04;94563.88;;;25.04;34.62
43217;BME280;60511;42.686;23.300;2022-09-13T09:43:40;94568.16;;;25.05;34.45
43217;BME280;60511;42.686;23.300;2022-09-13T09:45:33;94560.50;;;25.11;35.04
43217;BME280;60511;42.686;23.300;2022-09-13T09:47:40;94557.47;;;25.16;34.86
43217;BME280;60511;42.686;23.300;2022-09-13T09:49:46;94559.88;;;25.21;34.10
43217;BME280;60511;42.686;23.300;2022-09-13T09:52:05;94560.25;;;25.19;34.16
43217;BME280;60511;42.686;23.300;2022-09-13T09:54:08;94553.25;;;25.18;34.15
43217;BME280;60511;42.686;23.300;2022-09-13T09:58:34;94552.84;;;25.16;34.40
43217;BME280;60511;42.686;23.300;2022-09-13T10:00:54;94547.84;;;25.18;34.55
43217;BME280;60511;42.686;23.300;2022-09-13T10:02:56;94537.78;;;25.19;34.42
43217;BME280;60511;42.686;23.300;2022-09-13T10:04:58;94543.63;;;25.21;34.35
43217;BME280;60511;42.686;23.300;2022-09-13T10:07:07;94535.50;;;25.21;34.52
43217;BME280;60511;42.686;23.300;2022-09-13T10:11:08;94543.19;;;25.19;34.17
43217;BME280;60511;42.686;23.300;2022-09-13T10:13:14;94534.38;;;25.22;34.36
43217;BME280;60511;42.686;23.300;2022-09-13T10:15:17;94528.59;;;25.23;34.39
43217;BME280;60511;42.686;23.300;2022-09-13T10:17:25;94536.72;;;25.23;34.47
43217;BME280;60511;42.686;23.300;2022-09-13T10:19:25;94528.22;;;25.25;34.32
43217;BME280;60511;42.686;23.300;2022-09-13T10:21:27;94525.50;;;25.25;34.43
43217;BME280;60511;42.686;23.300;2022-09-13T10:23:27;94529.38;;;25.24;34.44
43217;BME280;60511;42.686;23.300;2022-09-13T10:25:27;94524.00;;;25.28;34.36
43217;BME280;60511;42.686;23.300;2022-09-13T10:27:32;94535.22;;;25.26;34.32
43217;BME280;60511;42.686;23.300;2022-09-13T10:29:33;94533.69;;;25.29;33.99
43217;BME280;60511;42.686;23.300;2022-09-13T10:31:38;94527.09;;;25.26;34.30
43217;BME280;60511;42.686;23.300;2022-09-13T10:33:51;94519.72;;;25.26;34.25
43217;BME280;60511;42.686;23.300;2022-09-13T10:35:56;94518.59;;;25.28;34.24
43217;BME280;60511;42.686;23.300;2022-09-13T10:37:57;94524.00;;;25.28;34.32
43217;BME280;60511;42.686;23.300;2022-09-13T10:40:01;94522.09;;;25.28;34.20
43217;BME280;60511;42.686;23.300;2022-09-13T10:42:06;94520.75;;;25.45;33.44
43217;BME280;60511;42.686;23.300;2022-09-13T10:44:21;94524.88;;;25.35;33.74
43217;BME280;60511;42.686;23.300;2022-09-13T10:46:22;94517.50;;;25.32;33.87
43217;BME280;60511;42.686;23.300;2022-09-13T10:48:22;94512.84;;;25.33;34.13
43217;BME280;60511;42.686;23.300;2022-09-13T10:50:25;94502.00;;;25.33;34.00
43217;BME280;60511;42.686;23.300;2022-09-13T10:52:27;94501.72;;;25.41;33.27
43217;BME280;60511;42.686;23.300;2022-09-13T10:54:27;94504.00;;;25.36;33.73
43217;BME280;60511;42.686;23.300;2022-09-13T10:56:28;94502.00;;;25.33;33.84
43217;BME280;60511;42.686;23.300;2022-09-13T10:58:28;94500.88;;;25.34;33.87
43217;BME280;60511;42.686;23.300;2022-09-13T11:05:08;94499.81;;;25.42;34.34
43217;BME280;60511;42.686;23.300;2022-09-13T11:09:46;94492.41;;;25.39;34.41
43217;BME280;60511;42.686;23.300;2022-09-13T11:16:31;94495.16;;;25.42;34.32
43217;BME280;60511;42.686;23.300;2022-09-13T11:24:52;94479.03;;;25.53;34.74
43217;BME280;60511;42.686;23.300;2022-09-13T11:27:08;94476.28;;;25.50;34.39
43217;BME280;60511;42.686;23.300;2022-09-13T11:33:56;94468.56;;;25.52;34.46
43217;BME280;60511;42.686;23.300;2022-09-13T11:38:25;94473.69;;;25.60;33.91
43217;BME280;60511;42.686;23.300;2022-09-13T11:42:50;94467.81;;;25.55;34.24
43217;BME280;60511;42.686;23.300;2022-09-13T11:55:38;94481.03;;;25.60;34.53
43217;BME280;60511;42.686;23.300;2022-09-13T12:00:20;94480.06;;;25.75;33.80
43217;BME280;60511;42.686;23.300;2022-09-13T12:04:32;94468.41;;;25.71;33.98
43217;BME280;60511;42.686;23.300;2022-09-13T12:06:43;94463.69;;;25.68;34.18
43217;BME280;60511;42.686;23.300;2022-09-13T12:08:47;94474.00;;;25.89;33.14
43217;BME280;60511;42.686;23.300;2022-09-13T12:10:51;94470.97;;;25.94;33.01
43217;BME280;60511;42.686;23.300;2022-09-13T12:12:53;94472.31;;;25.77;33.79
43217;BME280;60511;42.686;23.300;2022-09-13T12:15:13;94473.06;;;25.74;33.65
43217;BME280;60511;42.686;23.300;2022-09-13T12:17:28;94473.59;;;25.87;33.17
43217;BME280;60511;42.686;23.300;2022-09-13T12:19:35;94470.47;;;25.85;32.93
43217;BME280;60511;42.686;23.300;2022-09-13T12:21:40;94470.19;;;25.94;33.30
43217;BME280;60511;42.686;23.300;2022-09-13T12:25:44;94470.38;;;25.78;33.54
43217;BME280;60511;42.686;23.300;2022-09-13T12:28:10;94466.13;;;25.77;33.83
43217;BME280;60511;42.686;23.300;2022-09-13T12:30:17;94468.91;;;25.84;33.26
43217;BME280;60511;42.686;23.300;2022-09-13T12:32:18;94462.06;;;25.94;32.88
43217;BME280;60511;42.686;23.300;2022-09-13T12:34:24;94474.00;;;25.89;33.11
43217;BME280;60511;42.686;23.300;2022-09-13T12:41:43;94464.19;;;25.77;33.89
43217;BME280;60511;42.686;23.300;2022-09-13T12:53:43;94461.13;;;25.79;33.63
43217;BME280;60511;42.686;23.300;2022-09-13T13:02:49;94461.94;;;25.86;33.28
43217;BME280;60511;42.686;23.300;2022-09-13T13:04:25;94463.06;;;25.82;33.56
43217;BME280;60511;42.686;23.300;2022-09-13T13:06:40;94461.94;;;25.83;33.60
43217;BME280;60511;42.686;23.300;2022-09-13T13:08:50;94469.72;;;25.88;33.14
43217;BME280;60511;42.686;23.300;2022-09-13T13:11:07;94460.41;;;25.85;33.20
43217;BME280;60511;42.686;23.300;2022-09-13T13:13:13;94460.00;;;25.83;33.53
43217;BME280;60511;42.686;23.300;2022-09-13T13:19:34;94488.03;;;22.72;30.15